Time;durP1;ratioP1;P1;durP2;ratioP2;P2;SDS_P1;SDS_P2;PMS_P1;PMS_P2;Temp;Humidity;BMP_temperature;BMP_pressure;BME280_temperature;BME280_humidity;BME280_pressure;Samples;Min_cycle;Max_cycle;Signal;HPM_P1;HPM_P2
2022/05/13 00:02:12;;;;;;;14.10;9.47;;;18.50;99.90;;;;;;5052405;28;20521;-62
2022/05/13 00:04:40;;;;;;;10.87;8.43;;;18.40;99.90;;;;;;5051712;28;20488;-62
2022/05/13 00:07:08;;;;;;;14.70;9.10;;;18.30;99.90;;;;;;5051700;28;20990;-60
2022/05/13 00:12:20;;;;;;;13.00;8.70;;;18.30;99.90;;;;;;5052162;28;20457;-65
2022/05/13 00:14:48;;;;;;;11.63;8.07;;;18.10;99.90;;;;;;5051992;28;20445;-64
2022/05/13 00:17:16;;;;;;;10.60;8.00;;;18.00;99.90;;;;;;5033796;28;20482;-61
2022/05/13 00:19:44;;;;;;;9.23;8.07;;;18.00;99.90;;;;;;5032087;28;20893;-63
2022/05/13 00:22:12;;;;;;;15.00;7.90;;;17.90;99.90;;;;;;5031493;28;20501;-60
2022/05/13 00:24:39;;;;;;;12.30;7.50;;;17.90;99.90;;;;;;5031478;28;21050;-61
2022/05/13 00:27:07;;;;;;;9.77;8.30;;;18.00;99.90;;;;;;5032229;28;20454;-63
2022/05/13 00:29:34;;;;;;;10.80;7.97;;;18.10;99.90;;;;;;5031305;28;20480;-64
2022/05/13 00:32:01;;;;;;;9.53;7.10;;;18.10;99.90;;;;;;5031769;28;20474;-63
2022/05/13 00:34:30;;;;;;;9.70;7.77;;;18.20;99.90;;;;;;5032125;28;20455;-65
2022/05/13 00:36:57;;;;;;;11.93;7.27;;;18.20;99.90;;;;;;5031518;28;20455;-63
2022/05/13 00:39:24;;;;;;;7.70;6.90;;;18.10;99.90;;;;;;5031779;28;20454;-65
2022/05/13 00:41:53;;;;;;;9.97;7.10;;;18.20;99.90;;;;;;5031114;28;20501;-63
2022/05/13 00:44:21;;;;;;;12.23;7.77;;;18.30;99.90;;;;;;5031507;28;20491;-62
2022/05/13 00:46:48;;;;;;;9.93;7.73;;;18.40;99.90;;;;;;5049118;28;20864;-61
2022/05/13 00:49:17;;;;;;;11.13;8.10;;;18.40;99.90;;;;;;5051365;28;20465;-62
2022/05/13 00:51:48;;;;;;;10.50;7.40;;;18.30;99.90;;;;;;5051028;28;20556;-62
2022/05/13 00:54:17;;;;;;;8.73;6.93;;;18.20;99.90;;;;;;5051460;28;20450;-60
2022/05/13 00:56:47;;;;;;;13.20;7.60;;;18.20;99.90;;;;;;5051326;28;20544;-62
2022/05/13 00:59:17;;;;;;;10.37;7.20;;;18.30;99.90;;;;;;5050833;28;20507;-62
2022/05/13 01:01:44;;;;;;;10.80;7.83;;;18.20;99.90;;;;;;5051006;28;20837;-61
2022/05/13 01:04:14;;;;;;;10.43;8.53;;;18.20;99.90;;;;;;5051084;28;20521;-63
2022/05/13 01:06:49;;;;;;;12.20;8.53;;;18.20;99.90;;;;;;5051127;28;20481;-63
2022/05/13 01:09:16;;;;;;;11.33;9.33;;;18.10;99.90;;;;;;5051038;28;20573;-65
2022/05/13 01:11:45;;;;;;;14.73;8.47;;;18.00;99.90;;;;;;5050817;28;20520;-63
2022/05/13 01:14:17;;;;;;;10.13;7.30;;;18.00;99.90;;;;;;5050814;28;20930;-61
2022/05/13 01:19:29;;;;;;;9.53;8.50;;;17.90;99.90;;;;;;5050988;28;20940;-62
2022/05/13 01:21:58;;;;;;;10.67;8.00;;;17.90;99.90;;;;;;5050354;28;20478;-64
2022/05/13 01:24:26;;;;;;;12.30;8.43;;;18.00;99.90;;;;;;5050564;28;20496;-61
2022/05/13 01:26:53;;;;;;;10.47;8.70;;;17.90;99.90;;;;;;5050692;28;20985;-64
2022/05/13 01:29:20;;;;;;;10.90;7.60;;;17.90;99.90;;;;;;5050536;28;20458;-63
2022/05/13 01:31:47;;;;;;;12.47;8.40;;;17.80;99.90;;;;;;5050778;28;20470;-64
2022/05/13 01:34:15;;;;;;;9.73;8.23;;;17.80;99.90;;;;;;5050428;28;20457;-61
2022/05/13 01:36:43;;;;;;;11.20;8.60;;;17.90;99.90;;;;;;5050104;28;20523;-61
2022/05/13 01:39:12;;;;;;;11.73;8.40;;;17.80;99.90;;;;;;5050437;28;20454;-62
2022/05/13 01:41:39;;;;;;;11.97;8.97;;;17.80;99.90;;;;;;5050102;28;20486;-65
2022/05/13 01:44:06;;;;;;;11.60;8.03;;;17.70;99.90;;;;;;5050378;28;20989;-63
2022/05/13 01:46:33;;;;;;;12.03;8.87;;;17.70;99.90;;;;;;5050170;28;20941;-65
2022/05/13 01:49:01;;;;;;;8.60;7.73;;;17.60;99.90;;;;;;5050243;28;20477;-64
2022/05/13 01:51:28;;;;;;;12.00;8.90;;;17.60;99.90;;;;;;5049980;28;20466;-63
2022/05/13 01:53:55;;;;;;;14.80;8.97;;;17.60;99.90;;;;;;5050107;28;20458;-60
2022/05/13 01:56:24;;;;;;;11.50;8.33;;;17.60;99.90;;;;;;5050070;28;20846;-63
2022/05/13 01:58:51;;;;;;;9.03;8.13;;;17.60;99.90;;;;;;5049997;28;20812;-64
2022/05/13 02:01:18;;;;;;;10.10;6.87;;;17.60;99.90;;;;;;5049458;28;20889;-63
2022/05/13 02:03:44;;;;;;;16.40;8.67;;;17.50;99.90;;;;;;5049978;28;20497;-61
2022/05/13 02:06:11;;;;;;;9.40;7.67;;;17.50;99.90;;;;;;5049889;28;20450;-65
2022/05/13 02:08:38;;;;;;;11.03;8.83;;;17.50;99.90;;;;;;5049949;28;20442;-64
2022/05/13 02:11:06;;;;;;;9.60;7.47;;;17.50;99.90;;;;;;5049768;28;20481;-63
2022/05/13 02:13:35;;;;;;;10.43;7.73;;;17.50;99.90;;;;;;5049650;28;20462;-64
2022/05/13 02:16:03;;;;;;;11.07;8.50;;;17.50;99.90;;;;;;5049868;28;20852;-61
2022/05/13 02:18:30;;;;;;;10.37;9.13;;;17.50;99.90;;;;;;5049894;28;20454;-64
2022/05/13 02:20:58;;;;;;;9.83;8.83;;;17.50;99.90;;;;;;5049398;28;20470;-62
2022/05/13 02:23:25;;;;;;;12.17;8.10;;;17.50;99.90;;;;;;5049956;28;20486;-64
2022/05/13 02:25:59;;;;;;;9.90;8.10;;;17.50;99.90;;;;;;5049827;28;20863;-63
2022/05/13 02:28:26;;;;;;;13.07;8.80;;;17.40;99.90;;;;;;5049694;28;20454;-63
2022/05/13 02:30:55;;;;;;;10.30;8.60;;;17.30;99.90;;;;;;5049117;28;20477;-63
2022/05/13 02:33:22;;;;;;;10.13;7.30;;;17.20;99.90;;;;;;5049446;28;20523;-65
2022/05/13 02:35:49;;;;;;;11.73;8.03;;;17.20;99.90;;;;;;5049067;28;20989;-63
2022/05/13 02:38:16;;;;;;;10.90;7.93;;;17.10;99.90;;;;;;5049767;28;20456;-61
2022/05/13 02:43:29;;;;;;;11.10;8.40;;;16.70;99.90;;;;;;5049257;28;20504;-60
2022/05/13 02:45:57;;;;;;;9.30;7.70;;;16.30;99.90;;;;;;5049083;28;20832;-62
2022/05/13 02:48:25;;;;;;;12.70;8.70;;;16.10;99.90;;;;;;5049520;28;20450;-63
2022/05/13 02:50:52;;;;;;;11.93;8.37;;;16.40;99.90;;;;;;5049303;28;20473;-61
2022/05/13 02:53:19;;;;;;;11.27;8.20;;;16.60;99.90;;;;;;5049511;28;20495;-65
2022/05/13 02:55:46;;;;;;;9.63;7.17;;;16.70;99.90;;;;;;5049382;28;20461;-61
2022/05/13 02:58:13;;;;;;;8.73;7.53;;;16.80;99.90;;;;;;5049238;28;20458;-61
2022/05/13 03:00:41;;;;;;;8.60;7.70;;;16.80;99.90;;;;;;5048908;28;20513;-63
2022/05/13 03:03:09;;;;;;;10.60;7.57;;;16.90;99.90;;;;;;5049057;28;20977;-61
2022/05/13 03:05:37;;;;;;;9.00;7.47;;;16.90;99.90;;;;;;5049122;28;20819;-61
2022/05/13 03:08:05;;;;;;;8.23;6.90;;;16.90;99.90;;;;;;5049338;28;20458;-63
2022/05/13 03:10:35;;;;;;;9.90;8.83;;;16.90;99.90;;;;;;5048942;28;20545;-60
2022/05/13 03:13:03;;;;;;;12.57;9.13;;;16.90;99.90;;;;;;5049020;28;20485;-62
2022/05/13 03:15:30;;;;;;;10.20;8.63;;;16.90;99.90;;;;;;5049035;28;20449;-64
2022/05/13 03:17:57;;;;;;;12.87;8.37;;;16.90;99.90;;;;;;5049259;28;20454;-63
2022/05/13 03:20:26;;;;;;;14.60;8.90;;;17.00;99.90;;;;;;5048894;28;20922;-62
2022/05/13 03:22:54;;;;;;;14.30;9.33;;;16.90;99.90;;;;;;5049102;28;20576;-61
2022/05/13 03:25:22;;;;;;;12.00;8.40;;;16.80;99.90;;;;;;5048856;28;21002;-63
2022/05/13 03:27:49;;;;;;;12.97;8.73;;;16.80;99.90;;;;;;5048915;28;20465;-64
2022/05/13 03:30:20;;;;;;;9.70;8.80;;;16.80;99.90;;;;;;5048880;28;20450;-63
2022/05/13 03:32:48;;;;;;;12.20;9.07;;;16.60;99.90;;;;;;5048980;28;20931;-61
2022/05/13 03:35:16;;;;;;;11.93;8.57;;;16.60;99.90;;;;;;5048974;28;20483;-66
2022/05/13 03:37:45;;;;;;;14.50;8.83;;;16.70;99.90;;;;;;5048834;28;20507;-62
2022/05/13 03:40:14;;;;;;;9.57;8.07;;;16.70;99.90;;;;;;5048745;28;20458;-62
2022/05/13 03:42:41;;;;;;;12.87;9.43;;;16.70;99.90;;;;;;5048438;28;20567;-61
2022/05/13 03:45:10;;;;;;;10.37;8.40;;;16.80;99.90;;;;;;5048680;28;20482;-64
2022/05/13 03:47:37;;;;;;;12.30;8.57;;;17.00;99.90;;;;;;5048919;28;20553;-63
2022/05/13 03:50:06;;;;;;;10.83;8.90;;;17.00;99.90;;;;;;5048645;28;20453;-63
2022/05/13 03:52:33;;;;;;;12.20;8.47;;;17.10;99.90;;;;;;5048658;28;20473;-65
2022/05/13 03:55:02;;;;;;;13.40;9.17;;;17.10;99.90;;;;;;5048871;28;20446;-61
2022/05/13 03:57:29;;;;;;;12.00;9.07;;;17.00;99.90;;;;;;5048727;28;21044;-62
2022/05/13 03:59:57;;;;;;;10.90;9.67;;;17.00;99.90;;;;;;5052533;28;20507;-63
2022/05/13 04:02:25;;;;;;;12.10;9.10;;;17.00;99.90;;;;;;5052198;28;20526;-60
2022/05/13 04:10:22;;;;;;;14.67;9.30;;;17.20;99.90;;;;;;5052325;28;20791;-62
2022/05/13 04:18:19;;;;;;;15.80;8.13;;;17.40;99.90;;;;;;5052144;28;20525;-62
2022/05/13 04:20:47;;;;;;;11.80;9.30;;;17.40;99.90;;;;;;5051997;28;20481;-63
2022/05/13 04:23:14;;;;;;;14.13;9.93;;;17.50;99.90;;;;;;5052052;28;20486;-62
2022/05/13 04:25:42;;;;;;;10.67;8.37;;;17.50;99.90;;;;;;5051589;28;20554;-62
2022/05/13 04:28:09;;;;;;;10.50;8.00;;;17.30;99.90;;;;;;5051920;28;20457;-62
2022/05/13 04:30:36;;;;;;;11.30;8.60;;;17.40;99.90;;;;;;5051632;28;20458;-64
2022/05/13 04:33:03;;;;;;;11.13;8.40;;;17.50;99.90;;;;;;5051417;28;20458;-63
2022/05/13 04:35:31;;;;;;;10.50;8.27;;;17.80;99.90;;;;;;5051597;28;20454;-61
2022/05/13 04:37:58;;;;;;;9.50;7.83;;;17.90;99.90;;;;;;5051664;28;20438;-63
2022/05/13 04:40:25;;;;;;;12.00;9.10;;;18.10;99.90;;;;;;5050963;28;20469;-61
2022/05/13 04:42:53;;;;;;;13.00;9.70;;;18.10;99.90;;;;;;5051136;28;20613;-65
2022/05/13 04:45:24;;;;;;;10.03;9.07;;;18.10;99.90;;;;;;5051246;28;20482;-66
2022/05/13 04:50:37;;;;;;;15.10;7.97;;;18.40;99.90;;;;;;5051198;28;20441;-64
2022/05/13 04:53:06;;;;;;;10.60;8.80;;;18.40;99.90;;;;;;5051102;28;20456;-66
2022/05/13 04:55:33;;;;;;;10.30;8.27;;;18.40;99.90;;;;;;5051177;28;21253;-68
2022/05/13 04:58:02;;;;;;;10.63;7.40;;;18.40;99.90;;;;;;5051364;28;20453;-65
2022/05/13 05:00:29;;;;;;;8.23;7.37;;;18.50;99.90;;;;;;5051299;28;20454;-69
2022/05/13 05:02:57;;;;;;;14.30;7.10;;;18.60;99.90;;;;;;5051086;28;20460;-68
2022/05/13 05:05:24;;;;;;;8.40;6.20;;;18.70;99.90;;;;;;5051092;28;20485;-69
2022/05/13 05:07:52;;;;;;;8.40;6.57;;;18.60;99.90;;;;;;5051949;28;20788;-66
2022/05/13 05:10:21;;;;;;;7.93;6.73;;;18.70;99.90;;;;;;5049906;28;21021;-68
2022/05/13 05:12:49;;;;;;;8.70;6.87;;;18.70;99.90;;;;;;5051180;28;20470;-70
2022/05/13 05:15:18;;;;;;;8.97;6.53;;;18.90;99.90;;;;;;5050635;28;20956;-71
2022/05/13 05:17:45;;;;;;;14.87;8.03;;;19.10;99.90;;;;;;5050917;28;20450;-66
2022/05/13 05:20:12;;;;;;;9.07;7.70;;;19.30;99.90;;;;;;5050692;28;20450;-66
2022/05/13 05:22:39;;;;;;;10.27;7.43;;;19.30;99.90;;;;;;5050820;28;20458;-68
2022/05/13 05:25:07;;;;;;;10.40;7.60;;;19.40;99.90;;;;;;5050600;28;20497;-69
2022/05/13 05:27:36;;;;;;;7.60;6.80;;;19.50;99.90;;;;;;5050645;28;20454;-65
2022/05/13 05:30:05;;;;;;;11.00;7.73;;;19.60;99.90;;;;;;5050371;28;20548;-62
2022/05/13 05:32:34;;;;;;;9.73;7.30;;;19.60;99.90;;;;;;5050284;28;20593;-67
2022/05/13 05:35:01;;;;;;;9.73;7.73;;;19.50;99.90;;;;;;5050623;28;20450;-66
2022/05/13 05:37:28;;;;;;;10.40;6.60;;;19.40;99.90;;;;;;5050459;28;20461;-66
2022/05/13 05:39:55;;;;;;;10.70;7.27;;;19.50;99.90;;;;;;5050089;28;20849;-68
2022/05/13 05:42:22;;;;;;;10.00;7.03;;;19.70;99.90;;;;;;5049671;28;20489;-65
2022/05/13 05:44:49;;;;;;;13.17;8.00;;;19.90;99.90;;;;;;5050070;28;20485;-65
2022/05/13 05:47:19;;;;;;;13.00;7.10;;;20.00;99.90;;;;;;5050202;28;20812;-68
2022/05/13 05:49:47;;;;;;;9.80;7.30;;;20.10;99.90;;;;;;5050391;28;20570;-65
2022/05/13 05:52:14;;;;;;;10.87;7.80;;;20.20;99.90;;;;;;5050197;28;20474;-66
2022/05/13 05:57:26;;;;;;;8.93;7.40;;;20.00;99.90;;;;;;5049820;28;20433;-65
2022/05/13 05:59:53;;;;;;;10.83;7.30;;;20.10;99.90;;;;;;5049735;28;20851;-64
2022/05/13 06:02:20;;;;;;;11.30;6.90;;;20.10;99.90;;;;;;5049595;28;20481;-69
2022/05/13 06:04:49;;;;;;;15.20;9.00;;;20.30;99.90;;;;;;5049897;28;20493;-69
2022/05/13 06:07:17;;;;;;;12.63;7.83;;;20.50;99.90;;;;;;5049856;28;20461;-70
2022/05/13 06:09:45;;;;;;;10.30;8.27;;;20.50;99.90;;;;;;5049425;28;20454;-70
2022/05/13 06:12:13;;;;;;;9.40;7.30;;;20.70;99.90;;;;;;5049432;28;20474;-69
2022/05/13 06:14:41;;;;;;;9.40;8.00;;;20.90;99.90;;;;;;5049749;28;20450;-71
2022/05/13 06:17:08;;;;;;;11.90;8.47;;;21.00;99.90;;;;;;5049509;28;20866;-67
2022/05/13 06:19:36;;;;;;;17.50;8.20;;;21.10;99.90;;;;;;5049749;28;20454;-67
2022/05/13 06:22:05;;;;;;;15.53;9.00;;;21.40;99.90;;;;;;5049570;28;20512;-66
2022/05/13 06:24:32;;;;;;;20.17;9.67;;;21.50;99.90;;;;;;5049258;28;20976;-68
2022/05/13 06:26:59;;;;;;;16.90;10.03;;;21.70;99.90;;;;;;5049654;28;20457;-67
2022/05/13 06:29:27;;;;;;;11.47;9.10;;;21.90;99.90;;;;;;5049545;28;20449;-67
2022/05/13 06:31:54;;;;;;;15.63;10.17;;;22.10;99.90;;;;;;5049332;28;20474;-74
2022/05/13 06:34:23;;;;;;;14.90;9.70;;;22.30;99.90;;;;;;5049446;28;20450;-66
2022/05/13 06:36:51;;;;;;;15.63;10.50;;;22.30;99.90;;;;;;5049641;28;21067;-65
2022/05/13 06:39:20;;;;;;;11.70;9.50;;;22.40;99.90;;;;;;5049123;28;20812;-64
2022/05/13 06:41:47;;;;;;;13.53;8.90;;;22.50;99.90;;;;;;5049066;28;20497;-65
2022/05/13 06:44:15;;;;;;;13.80;9.70;;;22.70;99.90;;;;;;5049088;28;20454;-65
2022/05/13 06:46:42;;;;;;;13.20;9.83;;;22.80;98.50;;;;;;5048330;28;20493;-64
2022/05/13 06:49:12;;;;;;;12.13;9.20;;;22.80;97.10;;;;;;5049326;28;20504;-64
2022/05/13 06:51:40;;;;;;;13.90;9.43;;;23.00;96.90;;;;;;5049098;28;20564;-63
2022/05/13 06:54:09;;;;;;;13.40;11.63;;;23.30;97.20;;;;;;5049079;28;20820;-64
2022/05/13 06:56:41;;;;;;;14.67;10.00;;;23.40;97.20;;;;;;5049171;28;20450;-64
2022/05/13 06:59:08;;;;;;;18.30;10.07;;;23.50;97.10;;;;;;5049279;28;20458;-64
2022/05/13 07:01:36;;;;;;;13.87;9.80;;;23.70;96.30;;;;;;5048883;28;20482;-65
2022/05/13 07:04:04;;;;;;;15.83;10.07;;;23.80;95.80;;;;;;5049018;28;20867;-63
2022/05/13 07:06:31;;;;;;;13.33;8.97;;;23.80;94.30;;;;;;5048842;28;20493;-65
2022/05/13 07:08:58;;;;;;;13.97;10.13;;;23.80;93.90;;;;;;5049009;28;20532;-64
2022/05/13 07:11:25;;;;;;;17.50;9.43;;;24.00;93.70;;;;;;5048853;28;20536;-65
2022/05/13 07:13:54;;;;;;;12.47;9.23;;;24.20;93.80;;;;;;5049145;28;20457;-64
2022/05/13 07:16:22;;;;;;;15.20;9.37;;;24.40;93.10;;;;;;5048742;28;20818;-64
2022/05/13 07:18:50;;;;;;;19.07;11.43;;;24.50;92.50;;;;;;5048731;28;20465;-64
2022/05/13 07:21:17;;;;;;;15.50;9.30;;;24.60;92.00;;;;;;5047746;28;20469;-64
2022/05/13 07:23:44;;;;;;;19.73;9.33;;;24.70;91.40;;;;;;5028602;28;20954;-65
2022/05/13 07:26:12;;;;;;;13.47;9.17;;;24.90;91.50;;;;;;5029044;28;20482;-65
2022/05/13 07:28:39;;;;;;;17.53;9.30;;;25.10;90.80;;;;;;5028924;28;20532;-65
2022/05/13 07:31:08;;;;;;;15.27;8.57;;;25.30;90.00;;;;;;5028061;28;20979;-65
2022/05/13 07:33:36;;;;;;;10.63;9.00;;;25.40;88.40;;;;;;5030793;28;20534;-64
2022/05/13 07:36:05;;;;;;;13.47;10.40;;;25.40;88.40;;;;;;5032891;28;20537;-64
2022/05/13 07:38:34;;;;;;;13.63;9.87;;;25.40;88.00;;;;;;5032253;28;20454;-65
2022/05/13 07:41:19;;;;;;;15.10;9.60;;;25.50;89.90;;;;;;5031507;28;20487;-65
2022/05/13 07:43:46;;;;;;;11.70;9.00;;;25.60;88.00;;;;;;5032535;28;20481;-64
2022/05/13 07:46:15;;;;;;;15.20;9.80;;;25.70;86.90;;;;;;5044327;28;20489;-65
2022/05/13 07:48:43;;;;;;;18.33;9.00;;;25.80;86.00;;;;;;5045698;28;20451;-64
2022/05/13 07:51:11;;;;;;;13.07;7.83;;;25.70;86.40;;;;;;5031498;28;20475;-64
2022/05/13 07:53:39;;;;;;;11.80;9.50;;;25.80;86.10;;;;;;5032372;28;20817;-64
2022/05/13 07:56:08;;;;;;;13.53;9.20;;;26.00;84.90;;;;;;5031908;28;20451;-64
2022/05/13 07:58:35;;;;;;;15.63;9.83;;;25.90;84.10;;;;;;5031946;28;20533;-64
2022/05/13 08:01:03;;;;;;;12.10;8.80;;;26.10;85.10;;;;;;5031865;28;20478;-64
2022/05/13 08:03:31;;;;;;;12.57;8.53;;;26.30;85.40;;;;;;5031826;28;20575;-64
2022/05/13 08:06:03;;;;;;;12.63;8.90;;;26.30;83.20;;;;;;5031895;28;20919;-64
2022/05/13 08:08:35;;;;;;;10.50;8.70;;;26.30;80.50;;;;;;5032130;28;20463;-65
2022/05/13 08:11:05;;;;;;;9.97;8.10;;;26.40;80.10;;;;;;5031478;28;20470;-65
2022/05/13 08:13:34;;;;;;;16.60;8.30;;;26.50;80.80;;;;;;5031187;28;20457;-64
2022/05/13 08:16:02;;;;;;;11.60;9.30;;;26.70;79.90;;;;;;5029451;28;20451;-64
2022/05/13 08:18:31;;;;;;;10.20;8.20;;;26.90;78.80;;;;;;5030270;28;20554;-66
2022/05/13 08:20:58;;;;;;;15.40;8.30;;;27.00;77.80;;;;;;5030780;28;20481;-64
2022/05/13 08:23:25;;;;;;;12.43;9.50;;;27.20;77.20;;;;;;5029600;28;20451;-65
2022/05/13 08:25:53;;;;;;;9.47;8.17;;;27.30;74.80;;;;;;5030410;28;20494;-65
2022/05/13 08:28:22;;;;;;;15.90;10.63;;;27.40;74.40;;;;;;5031019;28;20501;-65
2022/05/13 08:30:49;;;;;;;10.23;7.73;;;27.40;74.00;;;;;;5029529;28;20479;-65
2022/05/13 08:33:17;;;;;;;12.70;7.77;;;27.40;72.80;;;;;;5028280;28;20474;-64
2022/05/13 08:35:48;;;;;;;12.40;7.50;;;27.60;70.50;;;;;;5027951;28;20942;-63
2022/05/13 08:38:17;;;;;;;14.93;7.80;;;27.30;70.40;;;;;;5028626;28;20959;-65
2022/05/13 08:41:02;;;;;;;12.23;7.57;;;27.30;71.20;;;;;;5029057;28;20475;-64
2022/05/13 08:43:35;;;;;;;9.87;7.40;;;27.30;72.60;;;;;;5029231;28;20465;-64
2022/05/13 08:46:10;;;;;;;11.60;7.80;;;27.50;71.80;;;;;;5041166;28;20492;-64
2022/05/13 08:48:48;;;;;;;351.47;317.43;;;27.70;71.40;;;;;;5051514;28;20897;-63
2022/05/13 08:51:19;;;;;;;33.10;29.97;;;27.90;70.50;;;;;;5051189;28;20501;-64
2022/05/13 08:53:54;;;;;;;24.93;22.50;;;27.90;69.40;;;;;;5051415;28;20512;-64
2022/05/13 08:56:25;;;;;;;100.13;90.67;;;28.00;66.90;;;;;;5050935;28;20460;-64
2022/05/13 08:58:58;;;;;;;28.27;22.27;;;28.10;68.70;;;;;;5051082;28;20461;-64
2022/05/13 09:01:28;;;;;;;10.23;7.40;;;28.10;66.00;;;;;;5051417;28;20474;-65
2022/05/13 09:04:00;;;;;;;13.20;9.90;;;28.10;65.00;;;;;;5050760;28;20996;-65
2022/05/13 09:06:37;;;;;;;13.03;8.40;;;28.20;67.10;;;;;;5051166;28;21175;-64
2022/05/13 09:09:06;;;;;;;12.20;8.40;;;28.20;65.20;;;;;;5051087;28;20511;-64
2022/05/13 09:11:40;;;;;;;10.20;7.93;;;28.20;64.90;;;;;;5051045;28;20510;-63
2022/05/13 09:14:24;;;;;;;11.57;7.90;;;28.50;64.30;;;;;;5050833;28;20888;-64
2022/05/13 09:17:02;;;;;;;14.37;8.00;;;28.60;64.80;;;;;;5050403;28;20450;-64
2022/05/13 09:19:35;;;;;;;9.40;7.20;;;28.80;63.80;;;;;;5050705;28;20467;-69
2022/05/13 09:22:05;;;;;;;12.67;7.23;;;28.60;63.10;;;;;;5050604;28;20567;-67
2022/05/13 09:24:32;;;;;;;11.03;7.40;;;28.80;61.30;;;;;;5050660;28;20501;-67
2022/05/13 09:27:00;;;;;;;12.07;7.33;;;28.90;63.00;;;;;;5050817;28;20489;-66
2022/05/13 09:29:39;;;;;;;8.70;6.87;;;29.20;61.40;;;;;;5050658;28;20495;-65
2022/05/13 09:32:13;;;;;;;9.20;6.50;;;29.00;61.80;;;;;;5050277;28;20923;-67
2022/05/13 09:34:49;;;;;;;7.27;6.03;;;29.20;62.30;;;;;;5050650;28;20446;-65
2022/05/13 09:37:22;;;;;;;8.87;5.93;;;29.60;61.20;;;;;;5050831;28;20453;-64
2022/05/13 09:39:51;;;;;;;8.60;6.70;;;29.70;59.00;;;;;;5050927;28;20454;-65
2022/05/13 09:42:20;;;;;;;16.10;6.83;;;29.70;58.60;;;;;;5050110;28;20834;-64
2022/05/13 09:44:48;;;;;;;15.60;6.27;;;29.80;58.60;;;;;;5050077;28;20480;-65
2022/05/13 09:47:18;;;;;;;9.67;6.50;;;29.80;56.90;;;;;;5050339;28;20580;-65
2022/05/13 09:49:47;;;;;;;9.20;6.03;;;29.70;56.50;;;;;;5050317;28;20486;-65
2022/05/13 09:52:17;;;;;;;8.00;6.10;;;29.80;57.00;;;;;;5050418;28;20474;-64
2022/05/13 09:54:48;;;;;;;8.63;5.37;;;29.80;54.60;;;;;;5050402;28;20461;-65
2022/05/13 09:57:21;;;;;;;6.87;4.87;;;29.90;54.60;;;;;;5049440;28;20507;-66
2022/05/13 09:59:55;;;;;;;6.23;4.47;;;29.90;55.20;;;;;;5050040;28;20458;-65
2022/05/13 10:02:26;;;;;;;8.03;4.97;;;29.90;53.10;;;;;;5049972;28;20465;-66
2022/05/13 10:04:55;;;;;;;6.70;4.90;;;30.30;54.20;;;;;;5050030;28;20461;-65
2022/05/13 10:07:25;;;;;;;9.43;5.53;;;30.30;52.70;;;;;;5049823;28;20904;-66
2022/05/13 10:15:35;;;;;;;5.53;4.00;;;29.90;51.00;;;;;;5049573;28;20510;-66
2022/05/13 10:18:11;;;;;;;5.30;3.90;;;29.70;51.00;;;;;;5049623;28;20532;-63
2022/05/13 10:20:41;;;;;;;6.47;4.40;;;30.00;51.20;;;;;;5049544;28;20458;-65
2022/05/13 10:23:14;;;;;;;8.07;5.10;;;30.20;51.20;;;;;;5049654;28;20934;-64
2022/05/13 10:25:57;;;;;;;8.20;5.13;;;30.30;51.60;;;;;;5049599;28;20937;-64
2022/05/13 10:28:31;;;;;;;7.53;3.53;;;30.30;51.20;;;;;;5049315;28;20482;-66
2022/05/13 10:31:03;;;;;;;5.87;4.37;;;30.10;51.10;;;;;;5049303;28;20484;-66
2022/05/13 10:33:43;;;;;;;6.70;4.47;;;30.20;51.40;;;;;;5049514;28;20544;-64
2022/05/13 10:36:17;;;;;;;7.33;4.20;;;30.40;52.00;;;;;;5049124;28;20445;-66
2022/05/13 10:38:49;;;;;;;9.13;5.07;;;30.40;52.80;;;;;;5049173;28;20457;-65
2022/05/13 10:41:26;;;;;;;8.07;5.33;;;30.70;54.00;;;;;;5048741;28;20501;-65
2022/05/13 10:43:59;;;;;;;7.87;4.67;;;31.00;52.90;;;;;;5049502;28;20523;-66
2022/05/13 10:46:34;;;;;;;7.60;5.70;;;31.30;52.40;;;;;;5049059;28;20492;-66
2022/05/13 10:49:01;;;;;;;6.93;4.80;;;31.60;52.20;;;;;;5048894;28;20460;-66
2022/05/13 10:51:35;;;;;;;6.27;4.63;;;31.80;51.30;;;;;;5048607;28;20818;-65
2022/05/13 10:54:27;;;;;;;8.63;6.00;;;32.10;50.30;;;;;;5048912;28;20488;-66
2022/05/13 10:57:06;;;;;;;7.43;5.40;;;32.00;50.00;;;;;;5049421;28;20449;-66
2022/05/13 10:59:42;;;;;;;7.57;5.07;;;32.10;49.90;;;;;;5049064;28;20493;-67
2022/05/13 11:02:34;;;;;;;6.30;4.70;;;32.30;49.80;;;;;;5049024;28;20892;-64
2022/05/13 11:05:09;;;;;;;7.90;4.50;;;32.40;49.70;;;;;;5049166;28;20946;-68
2022/05/13 11:07:45;;;;;;;6.90;4.90;;;32.50;48.50;;;;;;5051285;28;20489;-65
2022/05/13 11:10:21;;;;;;;7.60;5.13;;;32.50;49.30;;;;;;5053352;28;20465;-67
2022/05/13 11:12:59;;;;;;;6.40;4.73;;;32.50;49.10;;;;;;5053100;28;20465;-67
2022/05/13 11:15:35;;;;;;;6.77;4.80;;;32.80;49.10;;;;;;5053347;28;20457;-68
2022/05/13 11:18:11;;;;;;;8.30;4.83;;;33.10;49.40;;;;;;5052850;28;20991;-67
2022/05/13 11:20:46;;;;;;;10.73;4.70;;;33.10;47.50;;;;;;5052782;28;20449;-68
2022/05/13 11:23:28;;;;;;;7.73;5.00;;;33.20;47.00;;;;;;5052632;28;20539;-66
2022/05/13 11:26:13;;;;;;;7.40;4.50;;;33.40;48.10;;;;;;5053089;28;20482;-66
2022/05/13 11:29:03;;;;;;;5.50;4.60;;;33.40;48.10;;;;;;5052558;28;20944;-66
2022/05/13 11:31:57;;;;;;;5.80;4.73;;;33.20;47.70;;;;;;5052746;28;20473;-65
2022/05/13 11:34:40;;;;;;;6.77;4.70;;;33.30;47.60;;;;;;5052816;28;20457;-66
2022/05/13 11:37:12;;;;;;;6.63;5.03;;;33.40;46.50;;;;;;5052727;28;20457;-66
2022/05/13 11:39:49;;;;;;;8.20;6.60;;;33.50;46.50;;;;;;5052720;28;20453;-66
2022/05/13 11:46:19;;;;;;;8.40;5.73;;;34.00;47.10;;;;;;5043682;28;20872;-66
2022/05/13 11:48:48;;;;;;;9.10;5.20;;;33.90;45.40;;;;;;5052502;28;20445;-66
2022/05/13 11:51:18;;;;;;;10.87;7.17;;;33.60;45.10;;;;;;5052351;28;20477;-67
2022/05/13 11:53:52;;;;;;;8.70;5.40;;;33.40;45.80;;;;;;5052500;28;20507;-66
2022/05/13 11:56:34;;;;;;;7.37;5.90;;;33.70;46.20;;;;;;5052436;28;20453;-66
2022/05/13 11:59:03;;;;;;;10.07;9.00;;;33.90;45.80;;;;;;5052289;28;20508;-66
2022/05/13 12:01:59;;;;;;;9.40;7.03;;;34.10;46.30;;;;;;5052234;28;20466;-67
2022/05/13 12:04:35;;;;;;;10.13;8.97;;;34.30;45.90;;;;;;5052052;28;20450;-66
2022/05/13 12:07:25;;;;;;;7.33;5.67;;;34.40;44.80;;;;;;5052189;28;20491;-67
2022/05/13 12:09:53;;;;;;;8.47;6.17;;;34.20;43.80;;;;;;5052186;28;20884;-69
2022/05/13 12:12:30;;;;;;;6.53;5.47;;;34.30;44.20;;;;;;5051636;28;20482;-65
2022/05/13 12:15:04;;;;;;;8.87;4.30;;;34.60;43.50;;;;;;5052194;28;20457;-66
2022/05/13 12:17:41;;;;;;;5.80;4.23;;;34.80;44.10;;;;;;5052219;28;20786;-67
2022/05/13 12:20:14;;;;;;;5.20;3.70;;;35.00;43.70;;;;;;5051260;28;20541;-68
2022/05/13 12:22:53;;;;;;;7.50;4.83;;;35.00;42.80;;;;;;5051915;28;20490;-68
2022/05/13 12:25:59;;;;;;;5.73;4.17;;;35.10;43.60;;;;;;5052103;28;20867;-66
2022/05/13 12:28:32;;;;;;;7.03;3.73;;;35.10;39.90;;;;;;5046697;28;20496;-66
2022/05/13 12:31:00;;;;;;;9.73;4.00;;;35.00;39.00;;;;;;5051101;28;20496;-67
2022/05/13 12:33:38;;;;;;;9.77;4.07;;;35.00;40.60;;;;;;5051640;28;20801;-63
2022/05/13 12:39:14;;;;;;;11.77;4.80;;;35.20;40.10;;;;;;5051978;28;20993;-64
2022/05/13 12:41:53;;;;;;;6.57;4.73;;;35.50;39.60;;;;;;5051102;28;20490;-66
2022/05/13 12:44:34;;;;;;;6.23;4.60;;;35.50;39.90;;;;;;5051761;28;20536;-66
2022/05/13 12:47:21;;;;;;;5.90;3.70;;;35.60;38.60;;;;;;5051454;28;20914;-66
2022/05/13 12:50:01;;;;;;;5.20;3.30;;;35.60;37.00;;;;;;5051580;28;20458;-65
2022/05/13 12:52:38;;;;;;;5.80;3.77;;;35.10;36.70;;;;;;5051387;28;20469;-66
2022/05/13 12:55:10;;;;;;;6.83;3.37;;;35.00;38.30;;;;;;5051357;28;20450;-66
2022/05/13 12:57:42;;;;;;;5.63;3.90;;;35.40;38.10;;;;;;5050860;28;20544;-67
2022/05/13 13:00:14;;;;;;;5.13;2.90;;;35.60;36.40;;;;;;5051613;28;20745;-65
2022/05/13 13:02:43;;;;;;;6.13;3.33;;;35.50;35.60;;;;;;5051023;28;20501;-64
2022/05/13 13:05:16;;;;;;;5.10;3.33;;;35.60;36.20;;;;;;5051156;28;20450;-65
2022/05/13 13:07:43;;;;;;;7.10;4.20;;;35.90;37.00;;;;;;5051170;28;20485;-63
2022/05/13 13:10:11;;;;;;;5.53;3.40;;;36.10;36.80;;;;;;5051202;28;20461;-64
2022/05/13 13:12:43;;;;;;;4.60;3.60;;;36.20;36.30;;;;;;5050914;28;20481;-68
2022/05/13 13:15:15;;;;;;;5.70;3.80;;;36.10;36.80;;;;;;5050687;28;20450;-65
2022/05/13 13:17:46;;;;;;;7.23;4.00;;;36.20;36.90;;;;;;5051000;28;20448;-66
2022/05/13 13:20:19;;;;;;;8.13;3.97;;;36.20;37.10;;;;;;5050707;28;20457;-67
2022/05/13 13:22:49;;;;;;;5.70;3.70;;;36.30;37.20;;;;;;5051246;28;20474;-66
2022/05/13 13:25:26;;;;;;;7.60;3.60;;;36.60;36.50;;;;;;5050829;28;20782;-67
2022/05/13 13:27:56;;;;;;;5.10;3.33;;;36.80;34.70;;;;;;5050265;28;20500;-66
2022/05/13 13:30:25;;;;;;;4.83;3.60;;;36.90;35.40;;;;;;5049743;28;20456;-67
2022/05/13 13:32:54;;;;;;;5.60;3.87;;;37.00;35.40;;;;;;5050790;28;20473;-66
2022/05/13 13:35:36;;;;;;;5.80;2.73;;;37.00;32.20;;;;;;5050558;28;20465;-65